sensor_id;sensor_type;location;lat;lon;timestamp;temperature;humidity
12704;DHT22;6416;52.182;7.650;2022-08-21T00:01:50;21.20;54.80
12704;DHT22;6416;52.182;7.650;2022-08-21T00:04:16;21.20;54.20
12704;DHT22;6416;52.182;7.650;2022-08-21T00:06:41;21.10;54.20
12704;DHT22;6416;52.182;7.650;2022-08-21T00:09:08;21.10;54.20
12704;DHT22;6416;52.182;7.650;2022-08-21T00:11:35;21.10;54.30
12704;DHT22;6416;52.182;7.650;2022-08-21T00:14:02;21.10;54.20
12704;DHT22;6416;52.182;7.650;2022-08-21T00:16:28;21.10;54.40
12704;DHT22;6416;52.182;7.650;2022-08-21T00:18:53;21.10;54.50
12704;DHT22;6416;52.182;7.650;2022-08-21T00:21:19;21.10;54.60
12704;DHT22;6416;52.182;7.650;2022-08-21T00:23:44;21.10;54.70
12704;DHT22;6416;52.182;7.650;2022-08-21T00:26:10;21.10;54.80
12704;DHT22;6416;52.182;7.650;2022-08-21T00:28:35;21.00;54.70
12704;DHT22;6416;52.182;7.650;2022-08-21T00:31:01;21.00;54.70
12704;DHT22;6416;52.182;7.650;2022-08-21T00:33:26;21.00;54.90
12704;DHT22;6416;52.182;7.650;2022-08-21T00:35:52;21.00;55.00
12704;DHT22;6416;52.182;7.650;2022-08-21T00:38:18;20.90;55.00
12704;DHT22;6416;52.182;7.650;2022-08-21T00:40:50;20.90;55.10
12704;DHT22;6416;52.182;7.650;2022-08-21T00:43:19;20.90;55.60
12704;DHT22;6416;52.182;7.650;2022-08-21T00:45:45;20.80;55.20
12704;DHT22;6416;52.182;7.650;2022-08-21T00:48:11;20.70;55.10
12704;DHT22;6416;52.182;7.650;2022-08-21T00:50:42;20.70;55.30
12704;DHT22;6416;52.182;7.650;2022-08-21T00:53:08;20.70;55.90
12704;DHT22;6416;52.182;7.650;2022-08-21T00:55:36;20.60;55.70
12704;DHT22;6416;52.182;7.650;2022-08-21T00:58:04;20.60;55.70
12704;DHT22;6416;52.182;7.650;2022-08-21T01:00:33;20.60;55.90
12704;DHT22;6416;52.182;7.650;2022-08-21T01:03:01;20.60;56.00
12704;DHT22;6416;52.182;7.650;2022-08-21T01:05:27;20.50;55.90
12704;DHT22;6416;52.182;7.650;2022-08-21T01:07:54;20.50;55.90
12704;DHT22;6416;52.182;7.650;2022-08-21T01:10:20;20.50;56.10
12704;DHT22;6416;52.182;7.650;2022-08-21T01:12:45;20.50;56.20
12704;DHT22;6416;52.182;7.650;2022-08-21T01:15:14;20.50;56.30
12704;DHT22;6416;52.182;7.650;2022-08-21T01:17:39;20.50;56.70
12704;DHT22;6416;52.182;7.650;2022-08-21T01:20:09;20.40;56.40
12704;DHT22;6416;52.182;7.650;2022-08-21T01:22:35;20.40;56.70
12704;DHT22;6416;52.182;7.650;2022-08-21T01:25:04;20.50;56.70
12704;DHT22;6416;52.182;7.650;2022-08-21T01:27:30;20.40;56.90
12704;DHT22;6416;52.182;7.650;2022-08-21T01:30:06;20.40;56.70
12704;DHT22;6416;52.182;7.650;2022-08-21T01:32:32;20.40;57.30
12704;DHT22;6416;52.182;7.650;2022-08-21T01:34:58;20.30;56.60
12704;DHT22;6416;52.182;7.650;2022-08-21T01:37:24;20.30;56.70
12704;DHT22;6416;52.182;7.650;2022-08-21T01:39:49;20.30;56.90
12704;DHT22;6416;52.182;7.650;2022-08-21T01:42:15;20.20;56.90
12704;DHT22;6416;52.182;7.650;2022-08-21T01:44:41;20.20;57.10
12704;DHT22;6416;52.182;7.650;2022-08-21T01:47:09;20.10;57.10
12704;DHT22;6416;52.182;7.650;2022-08-21T01:49:36;20.10;57.20
12704;DHT22;6416;52.182;7.650;2022-08-21T01:52:03;20.00;57.10
12704;DHT22;6416;52.182;7.650;2022-08-21T01:54:29;20.00;57.30
12704;DHT22;6416;52.182;7.650;2022-08-21T01:56:55;19.90;57.30
12704;DHT22;6416;52.182;7.650;2022-08-21T01:59:22;19.90;57.40
12704;DHT22;6416;52.182;7.650;2022-08-21T02:01:48;19.90;57.70
12704;DHT22;6416;52.182;7.650;2022-08-21T02:04:14;19.80;58.40
12704;DHT22;6416;52.182;7.650;2022-08-21T02:06:40;19.80;57.90
12704;DHT22;6416;52.182;7.650;2022-08-21T02:09:08;19.80;58.00
12704;DHT22;6416;52.182;7.650;2022-08-21T02:11:35;19.80;58.00
12704;DHT22;6416;52.182;7.650;2022-08-21T02:14:00;19.70;57.90
12704;DHT22;6416;52.182;7.650;2022-08-21T02:16:26;19.70;57.90
12704;DHT22;6416;52.182;7.650;2022-08-21T02:18:52;19.70;58.00
12704;DHT22;6416;52.182;7.650;2022-08-21T02:21:17;19.60;58.00
12704;DHT22;6416;52.182;7.650;2022-08-21T02:23:43;19.60;58.10
12704;DHT22;6416;52.182;7.650;2022-08-21T02:26:10;19.60;58.10
12704;DHT22;6416;52.182;7.650;2022-08-21T02:28:36;19.50;58.10
12704;DHT22;6416;52.182;7.650;2022-08-21T02:31:02;19.50;58.10
12704;DHT22;6416;52.182;7.650;2022-08-21T02:33:28;19.40;58.10
12704;DHT22;6416;52.182;7.650;2022-08-21T02:35:55;19.40;58.20
12704;DHT22;6416;52.182;7.650;2022-08-21T02:38:24;19.30;58.30
12704;DHT22;6416;52.182;7.650;2022-08-21T02:40:50;19.30;58.50
12704;DHT22;6416;52.182;7.650;2022-08-21T02:43:18;19.20;58.40
12704;DHT22;6416;52.182;7.650;2022-08-21T02:45:45;19.20;58.60
12704;DHT22;6416;52.182;7.650;2022-08-21T02:48:13;19.10;58.50
12704;DHT22;6416;52.182;7.650;2022-08-21T02:50:47;19.00;58.60
12704;DHT22;6416;52.182;7.650;2022-08-21T02:53:14;19.00;59.30
12704;DHT22;6416;52.182;7.650;2022-08-21T02:55:40;18.90;58.50
12704;DHT22;6416;52.182;7.650;2022-08-21T02:58:07;18.90;58.70
12704;DHT22;6416;52.182;7.650;2022-08-21T03:00:34;18.80;58.70
12704;DHT22;6416;52.182;7.650;2022-08-21T03:03:01;18.80;58.70
12704;DHT22;6416;52.182;7.650;2022-08-21T03:05:28;18.80;58.70
12704;DHT22;6416;52.182;7.650;2022-08-21T03:07:54;18.70;58.80
12704;DHT22;6416;52.182;7.650;2022-08-21T03:10:20;18.70;58.90
12704;DHT22;6416;52.182;7.650;2022-08-21T03:12:46;18.60;58.90
12704;DHT22;6416;52.182;7.650;2022-08-21T03:15:15;18.60;59.00
12704;DHT22;6416;52.182;7.650;2022-08-21T03:17:41;18.50;59.20
12704;DHT22;6416;52.182;7.650;2022-08-21T03:20:08;18.50;59.00
12704;DHT22;6416;52.182;7.650;2022-08-21T03:22:34;18.50;59.20
12704;DHT22;6416;52.182;7.650;2022-08-21T03:25:00;18.40;59.10
12704;DHT22;6416;52.182;7.650;2022-08-21T03:27:27;18.40;59.20
12704;DHT22;6416;52.182;7.650;2022-08-21T03:29:53;18.30;59.30
12704;DHT22;6416;52.182;7.650;2022-08-21T03:32:19;18.30;59.30
12704;DHT22;6416;52.182;7.650;2022-08-21T03:34:44;18.20;59.30
12704;DHT22;6416;52.182;7.650;2022-08-21T03:37:11;18.30;59.50
12704;DHT22;6416;52.182;7.650;2022-08-21T03:39:36;18.20;59.50
12704;DHT22;6416;52.182;7.650;2022-08-21T03:42:02;18.20;59.60
12704;DHT22;6416;52.182;7.650;2022-08-21T03:44:28;18.10;59.70
12704;DHT22;6416;52.182;7.650;2022-08-21T03:46:54;18.10;59.70
12704;DHT22;6416;52.182;7.650;2022-08-21T03:49:19;18.00;59.70
12704;DHT22;6416;52.182;7.650;2022-08-21T03:51:45;18.00;59.80
12704;DHT22;6416;52.182;7.650;2022-08-21T03:54:10;18.00;59.90
12704;DHT22;6416;52.182;7.650;2022-08-21T03:56:36;17.90;59.80
12704;DHT22;6416;52.182;7.650;2022-08-21T03:59:01;17.90;59.90
12704;DHT22;6416;52.182;7.650;2022-08-21T04:01:27;17.80;59.90
12704;DHT22;6416;52.182;7.650;2022-08-21T04:03:52;17.80;60.70
12704;DHT22;6416;52.182;7.650;2022-08-21T04:06:18;17.80;60.00
12704;DHT22;6416;52.182;7.650;2022-08-21T04:08:43;17.70;60.10
12704;DHT22;6416;52.182;7.650;2022-08-21T04:11:09;17.70;60.20
12704;DHT22;6416;52.182;7.650;2022-08-21T04:13:34;17.70;60.30
12704;DHT22;6416;52.182;7.650;2022-08-21T04:16:00;17.60;60.40
12704;DHT22;6416;52.182;7.650;2022-08-21T04:18:25;17.60;60.50
12704;DHT22;6416;52.182;7.650;2022-08-21T04:20:52;17.60;60.60
12704;DHT22;6416;52.182;7.650;2022-08-21T04:23:20;17.60;60.90
12704;DHT22;6416;52.182;7.650;2022-08-21T04:25:45;17.60;60.80
12704;DHT22;6416;52.182;7.650;2022-08-21T04:28:11;17.60;61.00
12704;DHT22;6416;52.182;7.650;2022-08-21T04:30:36;17.50;60.90
12704;DHT22;6416;52.182;7.650;2022-08-21T04:33:02;17.50;61.00
12704;DHT22;6416;52.182;7.650;2022-08-21T04:35:28;17.50;61.00
12704;DHT22;6416;52.182;7.650;2022-08-21T04:37:53;17.50;61.10
12704;DHT22;6416;52.182;7.650;2022-08-21T04:40:20;17.50;61.20
12704;DHT22;6416;52.182;7.650;2022-08-21T04:42:48;17.50;61.20
12704;DHT22;6416;52.182;7.650;2022-08-21T04:45:42;17.50;61.40
12704;DHT22;6416;52.182;7.650;2022-08-21T04:48:08;17.50;62.00
12704;DHT22;6416;52.182;7.650;2022-08-21T04:50:43;17.50;61.40
12704;DHT22;6416;52.182;7.650;2022-08-21T04:53:13;17.50;62.10
12704;DHT22;6416;52.182;7.650;2022-08-21T04:55:41;17.50;61.70
12704;DHT22;6416;52.182;7.650;2022-08-21T04:58:08;17.50;61.60
12704;DHT22;6416;52.182;7.650;2022-08-21T05:00:35;17.50;61.70
12704;DHT22;6416;52.182;7.650;2022-08-21T05:03:02;17.50;61.80
12704;DHT22;6416;52.182;7.650;2022-08-21T05:05:29;17.50;61.90
12704;DHT22;6416;52.182;7.650;2022-08-21T05:07:55;17.50;62.00
12704;DHT22;6416;52.182;7.650;2022-08-21T05:10:22;17.60;62.30
12704;DHT22;6416;52.182;7.650;2022-08-21T05:12:48;17.70;62.70
12704;DHT22;6416;52.182;7.650;2022-08-21T05:15:14;17.80;63.00
12704;DHT22;6416;52.182;7.650;2022-08-21T05:17:41;17.90;63.30
12704;DHT22;6416;52.182;7.650;2022-08-21T05:20:08;18.10;63.50
12704;DHT22;6416;52.182;7.650;2022-08-21T05:22:33;18.20;63.50
12704;DHT22;6416;52.182;7.650;2022-08-21T05:24:59;18.40;63.60
12704;DHT22;6416;52.182;7.650;2022-08-21T05:27:24;18.60;63.60
12704;DHT22;6416;52.182;7.650;2022-08-21T05:29:50;18.80;64.30
12704;DHT22;6416;52.182;7.650;2022-08-21T05:32:15;19.10;63.50
12704;DHT22;6416;52.182;7.650;2022-08-21T05:34:41;19.30;63.50
12704;DHT22;6416;52.182;7.650;2022-08-21T05:37:07;19.50;63.30
12704;DHT22;6416;52.182;7.650;2022-08-21T05:39:35;19.60;63.10
12704;DHT22;6416;52.182;7.650;2022-08-21T05:42:00;19.90;63.20
12704;DHT22;6416;52.182;7.650;2022-08-21T05:44:26;20.10;63.10
12704;DHT22;6416;52.182;7.650;2022-08-21T05:46:51;20.30;63.00
12704;DHT22;6416;52.182;7.650;2022-08-21T05:49:17;20.60;63.00
12704;DHT22;6416;52.182;7.650;2022-08-21T05:51:42;20.80;62.90
12704;DHT22;6416;52.182;7.650;2022-08-21T05:54:08;21.00;62.70
12704;DHT22;6416;52.182;7.650;2022-08-21T05:56:33;21.30;62.50
12704;DHT22;6416;52.182;7.650;2022-08-21T05:58:59;21.50;62.40
12704;DHT22;6416;52.182;7.650;2022-08-21T06:01:25;21.80;62.40
12704;DHT22;6416;52.182;7.650;2022-08-21T06:03:50;22.00;62.00
12704;DHT22;6416;52.182;7.650;2022-08-21T06:06:16;22.30;61.90
12704;DHT22;6416;52.182;7.650;2022-08-21T06:08:42;22.50;61.60
12704;DHT22;6416;52.182;7.650;2022-08-21T06:11:08;22.80;61.40
12704;DHT22;6416;52.182;7.650;2022-08-21T06:13:35;23.00;61.20
12704;DHT22;6416;52.182;7.650;2022-08-21T06:16:13;23.20;61.00
12704;DHT22;6416;52.182;7.650;2022-08-21T06:18:39;23.40;59.90
12704;DHT22;6416;52.182;7.650;2022-08-21T06:21:05;23.70;60.50
12704;DHT22;6416;52.182;7.650;2022-08-21T06:23:31;24.00;60.40
12704;DHT22;6416;52.182;7.650;2022-08-21T06:25:57;24.30;60.20
12704;DHT22;6416;52.182;7.650;2022-08-21T06:28:22;24.60;59.90
12704;DHT22;6416;52.182;7.650;2022-08-21T06:30:48;24.90;59.50
12704;DHT22;6416;52.182;7.650;2022-08-21T06:33:14;25.10;59.10
12704;DHT22;6416;52.182;7.650;2022-08-21T06:35:39;25.30;58.80
12704;DHT22;6416;52.182;7.650;2022-08-21T06:38:05;25.60;58.60
12704;DHT22;6416;52.182;7.650;2022-08-21T06:40:30;25.80;58.10
12704;DHT22;6416;52.182;7.650;2022-08-21T06:42:57;26.00;57.70
12704;DHT22;6416;52.182;7.650;2022-08-21T06:45:22;26.20;57.60
12704;DHT22;6416;52.182;7.650;2022-08-21T06:47:48;26.50;57.50
12704;DHT22;6416;52.182;7.650;2022-08-21T06:50:13;26.70;57.20
12704;DHT22;6416;52.182;7.650;2022-08-21T06:52:39;26.90;56.80
12704;DHT22;6416;52.182;7.650;2022-08-21T06:55:07;27.20;56.60
12704;DHT22;6416;52.182;7.650;2022-08-21T06:57:34;27.40;56.20
12704;DHT22;6416;52.182;7.650;2022-08-21T07:00:00;27.60;55.90
12704;DHT22;6416;52.182;7.650;2022-08-21T07:02:25;27.80;55.80
12704;DHT22;6416;52.182;7.650;2022-08-21T07:04:51;28.10;55.80
12704;DHT22;6416;52.182;7.650;2022-08-21T07:07:17;28.40;55.30
12704;DHT22;6416;52.182;7.650;2022-08-21T07:09:42;28.60;54.50
12704;DHT22;6416;52.182;7.650;2022-08-21T07:12:08;28.90;54.20
12704;DHT22;6416;52.182;7.650;2022-08-21T07:14:34;29.10;54.00
12704;DHT22;6416;52.182;7.650;2022-08-21T07:17:00;29.40;53.90
12704;DHT22;6416;52.182;7.650;2022-08-21T07:19:25;29.70;53.10
12704;DHT22;6416;52.182;7.650;2022-08-21T07:21:52;29.90;52.40
12704;DHT22;6416;52.182;7.650;2022-08-21T07:24:18;30.10;52.00
12704;DHT22;6416;52.182;7.650;2022-08-21T07:26:43;30.30;51.10
12704;DHT22;6416;52.182;7.650;2022-08-21T07:29:09;30.50;50.70
12704;DHT22;6416;52.182;7.650;2022-08-21T07:31:34;30.60;50.60
12704;DHT22;6416;52.182;7.650;2022-08-21T07:34:00;30.80;50.40
12704;DHT22;6416;52.182;7.650;2022-08-21T07:36:25;31.10;49.80
12704;DHT22;6416;52.182;7.650;2022-08-21T07:38:51;31.20;49.50
12704;DHT22;6416;52.182;7.650;2022-08-21T07:41:20;31.40;49.40
12704;DHT22;6416;52.182;7.650;2022-08-21T07:43:46;31.60;48.60
12704;DHT22;6416;52.182;7.650;2022-08-21T07:46:12;31.90;48.40
12704;DHT22;6416;52.182;7.650;2022-08-21T07:48:38;32.10;47.90
12704;DHT22;6416;52.182;7.650;2022-08-21T07:51:07;32.30;47.50
12704;DHT22;6416;52.182;7.650;2022-08-21T07:53:35;32.50;46.70
12704;DHT22;6416;52.182;7.650;2022-08-21T07:56:00;32.70;46.60
12704;DHT22;6416;52.182;7.650;2022-08-21T07:58:26;32.80;46.80
12704;DHT22;6416;52.182;7.650;2022-08-21T08:00:51;33.00;45.50
12704;DHT22;6416;52.182;7.650;2022-08-21T08:03:17;33.20;44.90
12704;DHT22;6416;52.182;7.650;2022-08-21T08:05:42;33.30;45.10
12704;DHT22;6416;52.182;7.650;2022-08-21T08:08:08;33.50;44.70
12704;DHT22;6416;52.182;7.650;2022-08-21T08:10:34;33.70;44.00
12704;DHT22;6416;52.182;7.650;2022-08-21T08:12:59;33.80;42.10
12704;DHT22;6416;52.182;7.650;2022-08-21T08:15:26;33.80;41.40
12704;DHT22;6416;52.182;7.650;2022-08-21T08:17:53;33.80;41.70
12704;DHT22;6416;52.182;7.650;2022-08-21T08:20:20;33.80;41.30
12704;DHT22;6416;52.182;7.650;2022-08-21T08:22:46;33.70;41.30
12704;DHT22;6416;52.182;7.650;2022-08-21T08:25:13;33.70;41.50
12704;DHT22;6416;52.182;7.650;2022-08-21T08:27:40;33.80;41.20
12704;DHT22;6416;52.182;7.650;2022-08-21T08:30:07;33.90;41.10
12704;DHT22;6416;52.182;7.650;2022-08-21T08:32:34;34.10;41.20
12704;DHT22;6416;52.182;7.650;2022-08-21T08:34:59;34.30;41.40
12704;DHT22;6416;52.182;7.650;2022-08-21T08:37:25;34.50;40.80
12704;DHT22;6416;52.182;7.650;2022-08-21T08:39:50;34.70;39.80
12704;DHT22;6416;52.182;7.650;2022-08-21T08:42:26;34.90;39.20
12704;DHT22;6416;52.182;7.650;2022-08-21T08:45:29;34.90;37.90
12704;DHT22;6416;52.182;7.650;2022-08-21T08:48:01;35.00;38.00
12704;DHT22;6416;52.182;7.650;2022-08-21T08:53:05;35.10;38.60
12704;DHT22;6416;52.182;7.650;2022-08-21T08:55:40;35.10;37.60
12704;DHT22;6416;52.182;7.650;2022-08-21T08:58:07;35.00;36.70
12704;DHT22;6416;52.182;7.650;2022-08-21T09:00:34;35.00;37.10
12704;DHT22;6416;52.182;7.650;2022-08-21T09:03:01;34.90;37.50
12704;DHT22;6416;52.182;7.650;2022-08-21T09:05:44;34.80;37.70
12704;DHT22;6416;52.182;7.650;2022-08-21T09:10:57;35.00;38.00
12704;DHT22;6416;52.182;7.650;2022-08-21T09:13:50;34.90;37.60
12704;DHT22;6416;52.182;7.650;2022-08-21T09:19:04;34.70;36.40
12704;DHT22;6416;52.182;7.650;2022-08-21T09:21:53;34.60;36.90
12704;DHT22;6416;52.182;7.650;2022-08-21T09:27:11;34.60;37.00
12704;DHT22;6416;52.182;7.650;2022-08-21T09:29:41;34.80;37.80
12704;DHT22;6416;52.182;7.650;2022-08-21T09:32:27;35.10;38.10
12704;DHT22;6416;52.182;7.650;2022-08-21T09:37:21;35.80;37.50
12704;DHT22;6416;52.182;7.650;2022-08-21T09:39:47;36.20;37.60
12704;DHT22;6416;52.182;7.650;2022-08-21T09:42:22;36.40;36.20
12704;DHT22;6416;52.182;7.650;2022-08-21T09:44:48;36.60;34.70
12704;DHT22;6416;52.182;7.650;2022-08-21T09:47:18;36.60;34.80
12704;DHT22;6416;52.182;7.650;2022-08-21T09:49:44;36.60;33.80
12704;DHT22;6416;52.182;7.650;2022-08-21T09:52:19;36.40;34.00
12704;DHT22;6416;52.182;7.650;2022-08-21T09:54:46;36.20;33.80
12704;DHT22;6416;52.182;7.650;2022-08-21T09:57:18;36.00;34.10
12704;DHT22;6416;52.182;7.650;2022-08-21T09:59:46;35.80;34.20
12704;DHT22;6416;52.182;7.650;2022-08-21T10:05:16;36.20;33.40
12704;DHT22;6416;52.182;7.650;2022-08-21T10:07:39;36.60;35.70
12704;DHT22;6416;52.182;7.650;2022-08-21T10:10:17;37.00;35.00
12704;DHT22;6416;52.182;7.650;2022-08-21T10:15:48;37.80;33.20
12704;DHT22;6416;52.182;7.650;2022-08-21T10:18:27;38.10;32.90
12704;DHT22;6416;52.182;7.650;2022-08-21T10:23:42;38.80;32.70
12704;DHT22;6416;52.182;7.650;2022-08-21T10:32:04;39.60;31.20
12704;DHT22;6416;52.182;7.650;2022-08-21T10:34:55;39.60;30.90
12704;DHT22;6416;52.182;7.650;2022-08-21T10:43:02;39.80;30.30
12704;DHT22;6416;52.182;7.650;2022-08-21T10:45:41;40.10;30.40
12704;DHT22;6416;52.182;7.650;2022-08-21T10:48:19;40.40;30.20
12704;DHT22;6416;52.182;7.650;2022-08-21T10:50:51;40.70;29.90
12704;DHT22;6416;52.182;7.650;2022-08-21T10:56:05;41.30;29.50
12704;DHT22;6416;52.182;7.650;2022-08-21T11:01:40;41.90;29.10
12704;DHT22;6416;52.182;7.650;2022-08-21T11:04:24;42.20;28.90
12704;DHT22;6416;52.182;7.650;2022-08-21T11:07:05;42.60;28.00
12704;DHT22;6416;52.182;7.650;2022-08-21T11:09:32;42.80;28.10
12704;DHT22;6416;52.182;7.650;2022-08-21T11:12:03;43.10;28.20
12704;DHT22;6416;52.182;7.650;2022-08-21T11:17:11;43.40;27.20
12704;DHT22;6416;52.182;7.650;2022-08-21T11:22:40;43.70;26.50
12704;DHT22;6416;52.182;7.650;2022-08-21T11:28:00;43.90;25.30
12704;DHT22;6416;52.182;7.650;2022-08-21T11:36:02;43.90;25.90
12704;DHT22;6416;52.182;7.650;2022-08-21T11:38:40;43.90;24.90
12704;DHT22;6416;52.182;7.650;2022-08-21T11:43:47;43.80;24.80
12704;DHT22;6416;52.182;7.650;2022-08-21T11:54:34;43.90;24.40
12704;DHT22;6416;52.182;7.650;2022-08-21T11:57:07;44.00;24.50
12704;DHT22;6416;52.182;7.650;2022-08-21T11:59:47;44.10;24.10
12704;DHT22;6416;52.182;7.650;2022-08-21T12:02:17;44.20;23.90
12704;DHT22;6416;52.182;7.650;2022-08-21T12:04:50;44.20;24.10
12704;DHT22;6416;52.182;7.650;2022-08-21T12:07:59;44.30;23.70
12704;DHT22;6416;52.182;7.650;2022-08-21T12:10:17;44.30;23.60
12704;DHT22;6416;52.182;7.650;2022-08-21T12:12:44;44.20;23.60
12704;DHT22;6416;52.182;7.650;2022-08-21T12:23:45;44.10;23.80
12704;DHT22;6416;52.182;7.650;2022-08-21T12:26:28;44.10;23.70
12704;DHT22;6416;52.182;7.650;2022-08-21T12:29:12;43.90;23.00
12704;DHT22;6416;52.182;7.650;2022-08-21T12:31:57;43.70;23.20
12704;DHT22;6416;52.182;7.650;2022-08-21T12:34:32;43.60;23.40
12704;DHT22;6416;52.182;7.650;2022-08-21T12:37:04;43.50;23.60
12704;DHT22;6416;52.182;7.650;2022-08-21T12:39:34;43.30;23.30
12704;DHT22;6416;52.182;7.650;2022-08-21T12:44:50;43.00;23.20
12704;DHT22;6416;52.182;7.650;2022-08-21T12:48:07;42.80;23.40
12704;DHT22;6416;52.182;7.650;2022-08-21T12:50:21;42.50;23.80
12704;DHT22;6416;52.182;7.650;2022-08-21T12:53:02;42.30;23.30
12704;DHT22;6416;52.182;7.650;2022-08-21T12:55:33;42.00;23.70
12704;DHT22;6416;52.182;7.650;2022-08-21T12:57:59;41.80;23.80
12704;DHT22;6416;52.182;7.650;2022-08-21T13:00:27;41.50;23.70
12704;DHT22;6416;52.182;7.650;2022-08-21T13:02:53;41.30;23.90
12704;DHT22;6416;52.182;7.650;2022-08-21T13:05:32;41.10;23.90
12704;DHT22;6416;52.182;7.650;2022-08-21T13:08:02;40.90;23.80
12704;DHT22;6416;52.182;7.650;2022-08-21T13:10:31;40.60;24.00
12704;DHT22;6416;52.182;7.650;2022-08-21T13:13:01;40.40;24.20
12704;DHT22;6416;52.182;7.650;2022-08-21T13:15:31;40.20;24.40
12704;DHT22;6416;52.182;7.650;2022-08-21T13:17:57;40.10;24.80
12704;DHT22;6416;52.182;7.650;2022-08-21T13:20:25;40.00;24.60
12704;DHT22;6416;52.182;7.650;2022-08-21T13:22:52;39.80;24.60
12704;DHT22;6416;52.182;7.650;2022-08-21T13:25:20;39.60;24.50
12704;DHT22;6416;52.182;7.650;2022-08-21T13:27:59;39.40;24.50
12704;DHT22;6416;52.182;7.650;2022-08-21T13:30:25;39.10;24.40
12704;DHT22;6416;52.182;7.650;2022-08-21T13:32:55;38.80;24.60
12704;DHT22;6416;52.182;7.650;2022-08-21T13:35:45;38.50;25.10
12704;DHT22;6416;52.182;7.650;2022-08-21T13:38:11;38.30;25.60
12704;DHT22;6416;52.182;7.650;2022-08-21T13:40:51;38.20;25.70
12704;DHT22;6416;52.182;7.650;2022-08-21T13:43:20;38.00;25.60
12704;DHT22;6416;52.182;7.650;2022-08-21T13:45:52;37.80;25.70
12704;DHT22;6416;52.182;7.650;2022-08-21T13:48:19;37.60;26.10
12704;DHT22;6416;52.182;7.650;2022-08-21T13:50:45;37.50;26.00
12704;DHT22;6416;52.182;7.650;2022-08-21T13:53:28;37.30;25.90
12704;DHT22;6416;52.182;7.650;2022-08-21T13:55:54;37.20;26.10
12704;DHT22;6416;52.182;7.650;2022-08-21T13:58:29;37.10;26.20
12704;DHT22;6416;52.182;7.650;2022-08-21T14:00:56;36.90;26.10
12704;DHT22;6416;52.182;7.650;2022-08-21T14:03:43;36.80;26.20
12704;DHT22;6416;52.182;7.650;2022-08-21T14:06:20;36.60;26.30
12704;DHT22;6416;52.182;7.650;2022-08-21T14:09:02;36.50;26.80
12704;DHT22;6416;52.182;7.650;2022-08-21T14:11:34;36.30;26.80
12704;DHT22;6416;52.182;7.650;2022-08-21T14:16:53;36.00;27.10
12704;DHT22;6416;52.182;7.650;2022-08-21T14:19:23;35.80;27.20
12704;DHT22;6416;52.182;7.650;2022-08-21T14:21:49;35.70;27.30
12704;DHT22;6416;52.182;7.650;2022-08-21T14:24:30;35.60;27.20
12704;DHT22;6416;52.182;7.650;2022-08-21T14:27:03;35.60;27.60
12704;DHT22;6416;52.182;7.650;2022-08-21T14:29:35;35.50;27.40
12704;DHT22;6416;52.182;7.650;2022-08-21T14:32:13;35.40;27.50
12704;DHT22;6416;52.182;7.650;2022-08-21T14:34:39;35.30;27.60
12704;DHT22;6416;52.182;7.650;2022-08-21T14:37:05;35.20;27.60
12704;DHT22;6416;52.182;7.650;2022-08-21T14:39:30;35.10;27.90
12704;DHT22;6416;52.182;7.650;2022-08-21T14:41:57;35.10;27.90
12704;DHT22;6416;52.182;7.650;2022-08-21T14:44:23;35.00;27.80
12704;DHT22;6416;52.182;7.650;2022-08-21T14:46:48;35.00;27.90
12704;DHT22;6416;52.182;7.650;2022-08-21T14:49:14;34.80;27.90
12704;DHT22;6416;52.182;7.650;2022-08-21T14:51:40;34.80;27.90
12704;DHT22;6416;52.182;7.650;2022-08-21T14:54:06;34.60;28.00
12704;DHT22;6416;52.182;7.650;2022-08-21T14:56:33;34.60;28.20
12704;DHT22;6416;52.182;7.650;2022-08-21T14:59:03;34.40;28.00
12704;DHT22;6416;52.182;7.650;2022-08-21T15:01:29;34.40;28.00
12704;DHT22;6416;52.182;7.650;2022-08-21T15:03:54;34.30;28.10
12704;DHT22;6416;52.182;7.650;2022-08-21T15:06:20;34.30;28.30
12704;DHT22;6416;52.182;7.650;2022-08-21T15:08:45;34.20;28.40
12704;DHT22;6416;52.182;7.650;2022-08-21T15:11:18;34.10;28.50
12704;DHT22;6416;52.182;7.650;2022-08-21T15:13:44;34.00;28.50
12704;DHT22;6416;52.182;7.650;2022-08-21T15:16:11;34.00;28.60
12704;DHT22;6416;52.182;7.650;2022-08-21T15:18:37;34.00;28.70
12704;DHT22;6416;52.182;7.650;2022-08-21T15:21:02;33.90;28.80
12704;DHT22;6416;52.182;7.650;2022-08-21T15:23:28;33.90;29.00
12704;DHT22;6416;52.182;7.650;2022-08-21T15:25:54;33.90;28.70
12704;DHT22;6416;52.182;7.650;2022-08-21T15:28:20;33.90;28.80
12704;DHT22;6416;52.182;7.650;2022-08-21T15:30:46;33.90;28.90
12704;DHT22;6416;52.182;7.650;2022-08-21T15:33:12;33.90;28.90
12704;DHT22;6416;52.182;7.650;2022-08-21T15:35:38;33.80;29.00
12704;DHT22;6416;52.182;7.650;2022-08-21T15:38:03;33.80;28.80
12704;DHT22;6416;52.182;7.650;2022-08-21T15:40:29;33.70;28.70
12704;DHT22;6416;52.182;7.650;2022-08-21T15:43:00;33.70;29.00
12704;DHT22;6416;52.182;7.650;2022-08-21T15:45:27;33.60;28.80
12704;DHT22;6416;52.182;7.650;2022-08-21T15:47:53;33.60;28.80
12704;DHT22;6416;52.182;7.650;2022-08-21T15:50:19;33.50;28.90
12704;DHT22;6416;52.182;7.650;2022-08-21T15:52:44;33.40;29.20
12704;DHT22;6416;52.182;7.650;2022-08-21T15:55:13;33.30;29.10
12704;DHT22;6416;52.182;7.650;2022-08-21T15:57:45;33.20;29.20
12704;DHT22;6416;52.182;7.650;2022-08-21T16:00:20;33.20;29.10
12704;DHT22;6416;52.182;7.650;2022-08-21T16:02:49;33.20;29.70
12704;DHT22;6416;52.182;7.650;2022-08-21T16:05:16;33.10;29.20
12704;DHT22;6416;52.182;7.650;2022-08-21T16:07:42;33.00;29.00
12704;DHT22;6416;52.182;7.650;2022-08-21T16:10:09;33.00;29.30
12704;DHT22;6416;52.182;7.650;2022-08-21T16:12:38;33.00;29.40
12704;DHT22;6416;52.182;7.650;2022-08-21T16:15:07;32.90;29.30
12704;DHT22;6416;52.182;7.650;2022-08-21T16:17:35;32.90;29.60
12704;DHT22;6416;52.182;7.650;2022-08-21T16:20:04;32.80;29.60
12704;DHT22;6416;52.182;7.650;2022-08-21T16:22:31;32.80;29.70
12704;DHT22;6416;52.182;7.650;2022-08-21T16:24:56;32.80;29.60
12704;DHT22;6416;52.182;7.650;2022-08-21T16:27:22;32.80;29.70
12704;DHT22;6416;52.182;7.650;2022-08-21T16:29:47;32.80;30.00
12704;DHT22;6416;52.182;7.650;2022-08-21T16:32:14;32.70;29.80
12704;DHT22;6416;52.182;7.650;2022-08-21T16:34:42;32.70;29.80
12704;DHT22;6416;52.182;7.650;2022-08-21T16:37:09;32.70;29.50
12704;DHT22;6416;52.182;7.650;2022-08-21T16:39:34;32.60;30.00
12704;DHT22;6416;52.182;7.650;2022-08-21T16:42:00;32.60;29.70
12704;DHT22;6416;52.182;7.650;2022-08-21T16:44:25;32.60;29.80
12704;DHT22;6416;52.182;7.650;2022-08-21T16:46:51;32.50;29.90
12704;DHT22;6416;52.182;7.650;2022-08-21T16:49:16;32.40;29.90
12704;DHT22;6416;52.182;7.650;2022-08-21T16:51:42;32.40;30.10
12704;DHT22;6416;52.182;7.650;2022-08-21T16:54:08;32.40;30.10
12704;DHT22;6416;52.182;7.650;2022-08-21T16:56:34;32.30;30.00
12704;DHT22;6416;52.182;7.650;2022-08-21T16:59:00;32.30;30.20
12704;DHT22;6416;52.182;7.650;2022-08-21T17:01:28;32.20;30.20
12704;DHT22;6416;52.182;7.650;2022-08-21T17:03:55;32.10;30.90
12704;DHT22;6416;52.182;7.650;2022-08-21T17:06:21;32.00;30.20
12704;DHT22;6416;52.182;7.650;2022-08-21T17:08:47;31.90;30.50
12704;DHT22;6416;52.182;7.650;2022-08-21T17:13:44;31.70;30.90